Skip Navigation LinksHome page > Weather > Current weather Skip Navigation Links

Current Weather

Lewis University, Romeoville, Ill.

For information only: do not use for flight planning or navigation.
Latest weather
Observation time Monday, January 24, 2022 10:50 PM CST
Local time Monday, January 24, 2022 11:14 PM CST
Flight conditions Conditions unknown
Winds
Wind direction West-Northwest (300°)
Wind speed 8 mph
Sky condition
Ceiling unlimited
Temperature 6°F
Dewpoint 2°F
Altimeter 30.02 in.Hg
Derived measurements
Relative humidity 85%
Wind chill -7°F
Density altitude -3153 ft.
Remarks
Fully automated report.
Automated weather observing station with precipitation discriminator.
Present weather sensor not operating.
METAR KLOT 250450Z AUTO 30007KT M15/M16 A3002 RMK AO2 T11461165 PWINO

Settings

Location code

InnerDrive.Weather 4.0.6770.0 Release CLR 4.0.30319.42000
Copyright ©2018 Inner Drive Technology. All rights reserved. Portions Copyright ©1986-2018 David Braverman.

Find weather

Site navigation


Skip Navigation Links

Place info

Page info

PayPal - The safer, easier way to pay online!

Return home.

Copyright ©2022 Inner Drive Technology. Purveyors of fine, hand-crafted computer software. Page printed 2022-01-25T05:14:19 UTC.